Time;durP1;ratioP1;P1;durP2;ratioP2;P2;SDS_P1;SDS_P2;PMS_P1;PMS_P2;Temp;Humidity;BMP_temperature;BMP_pressure;BME280_temperature;BME280_humidity;BME280_pressure;Samples;Min_cycle;Max_cycle;Signal;HPM_P1;HPM_P2
2023/09/05 00:00:19;;;;;;;2.05;1.33;;;;;;;22.05;47.53;101841.13;16115356;19;131132;-61
2023/09/05 00:05:42;;;;;;;2.40;1.57;;;;;;;22.05;47.81;101834.72;16112969;19;130419;-60
2023/09/05 00:11:04;;;;;;;1.98;1.60;;;;;;;22.04;47.60;101833.00;16110099;19;130738;-61
2023/09/05 00:16:27;;;;;;;2.15;1.20;;;;;;;22.04;47.37;101830.22;16116082;19;131026;-61
2023/09/05 00:21:49;;;;;;;4.80;1.40;;;;;;;22.03;47.58;101832.16;16114660;19;131455;-61
2023/09/05 00:27:12;;;;;;;3.30;1.48;;;;;;;22.03;47.40;101826.56;16111869;19;130153;-62
2023/09/05 00:32:34;;;;;;;2.05;1.63;;;;;;;22.01;47.49;101820.44;16110921;19;129688;-61
2023/09/05 00:37:58;;;;;;;2.95;1.73;;;;;;;22.03;47.49;101820.16;16115005;19;130911;-61
2023/09/05 00:43:20;;;;;;;3.08;1.48;;;;;;;22.01;47.81;101826.00;16107661;19;129797;-61
2023/09/05 00:48:42;;;;;;;3.20;1.77;;;;;;;22.01;47.46;101822.34;16110327;19;133559;-61
2023/09/05 00:54:06;;;;;;;2.15;1.50;;;;;;;22.00;47.57;101824.31;16112824;19;130589;-61
2023/09/05 00:59:28;;;;;;;4.18;1.35;;;;;;;21.99;47.63;101819.81;16110658;19;129336;-61
2023/09/05 01:04:50;;;;;;;4.22;1.65;;;;;;;21.97;47.10;101820.06;16114543;19;130641;-61
2023/09/05 01:10:21;;;;;;;1.85;1.50;;;;;;;21.98;47.29;101818.13;16113823;19;131125;-62
2023/09/05 01:15:43;;;;;;;2.13;1.52;;;;;;;21.95;47.75;101819.47;16115444;19;129710;-61
2023/09/05 01:21:31;;;;;;;4.63;1.58;;;;;;;21.97;47.08;101819.22;16109630;19;130229;-62
2023/09/05 01:26:55;;;;;;;1.65;1.40;;;;;;;21.95;47.63;101829.75;16102023;19;130495;-61
2023/09/05 01:32:19;;;;;;;2.80;1.45;;;;;;;21.94;47.50;101819.72;16106358;19;131205;-62
2023/09/05 01:37:41;;;;;;;1.90;1.27;;;;;;;21.93;47.26;101827.22;16111202;19;130838;-62
2023/09/05 01:43:03;;;;;;;2.20;1.42;;;;;;;21.93;47.16;101820.81;16110022;19;129417;-61
2023/09/05 01:48:25;;;;;;;1.98;1.38;;;;;;;21.92;47.38;101822.75;16104765;19;130172;-62
2023/09/05 01:53:47;;;;;;;1.90;1.50;;;;;;;21.92;47.33;101830.25;16108654;19;130932;-62
2023/09/05 01:59:09;;;;;;;2.10;1.38;;;;;;;21.91;47.73;101826.63;16111621;19;130280;-62
2023/09/05 02:04:31;;;;;;;2.05;1.60;;;;;;;21.92;47.52;101821.91;16109900;19;129409;-62
2023/09/05 02:09:53;;;;;;;2.83;1.38;;;;;;;21.91;47.62;101817.44;16106874;19;130136;-62
2023/09/05 02:15:15;;;;;;;4.10;1.60;;;;;;;21.89;47.41;101811.25;16108035;19;131799;-61
2023/09/05 02:20:38;;;;;;;1.80;1.42;;;;;;;21.91;47.34;101814.66;16103398;19;129914;-61
2023/09/05 02:26:01;;;;;;;3.15;1.63;;;;;;;21.89;47.14;101802.91;16105654;19;131461;-61
2023/09/05 02:31:24;;;;;;;1.25;1.15;;;;;;;21.89;47.44;101816.84;16106781;19;129670;-62
2023/09/05 02:36:46;;;;;;;2.58;1.30;;;;;;;21.88;47.48;101812.34;16101705;19;130887;-62
2023/09/05 02:42:08;;;;;;;1.40;1.25;;;;;;;21.88;47.38;101823.50;16101879;19;129611;-61
2023/09/05 02:47:30;;;;;;;2.22;1.65;;;;;;;21.87;47.24;101817.06;16095412;19;130104;-61
2023/09/05 02:52:52;;;;;;;1.67;1.25;;;;;;;21.86;47.69;101823.72;16099608;19;131114;-64
2023/09/05 02:58:14;;;;;;;2.50;1.77;;;;;;;21.86;47.53;101820.94;16102842;19;131112;-64
2023/09/05 03:03:36;;;;;;;1.95;1.40;;;;;;;21.85;47.49;101813.66;16103027;19;130597;-61
2023/09/05 03:08:58;;;;;;;2.10;1.60;;;;;;;21.83;47.74;101810.31;16103739;19;130971;-62
2023/09/05 03:14:20;;;;;;;1.67;1.30;;;;;;;21.83;47.58;101813.94;16102653;19;129499;-62
2023/09/05 03:19:42;;;;;;;2.90;1.50;;;;;;;21.82;47.39;101815.03;16119817;19;129724;-61
2023/09/05 03:25:04;;;;;;;2.50;1.50;;;;;;;21.83;47.30;101801.97;16118262;19;130321;-61
2023/09/05 03:30:26;;;;;;;3.03;1.77;;;;;;;21.81;47.31;101802.19;16117208;19;130141;-63
2023/09/05 03:35:49;;;;;;;3.35;1.38;;;;;;;21.79;47.05;101793.22;16120652;19;130574;-62
2023/09/05 03:41:11;;;;;;;3.85;1.60;;;;;;;21.80;47.43;101794.91;16118443;19;131301;-62
2023/09/05 03:46:33;;;;;;;1.65;1.30;;;;;;;21.79;47.67;101792.41;16115587;19;130035;-61
2023/09/05 03:51:57;;;;;;;3.58;1.73;;;;;;;21.78;47.63;101797.13;16119259;19;130001;-62
2023/09/05 03:57:19;;;;;;;3.20;1.58;;;;;;;21.78;47.16;101791.56;16116688;19;130409;-65
2023/09/05 04:02:41;;;;;;;3.50;1.40;;;;;;;21.78;47.36;101791.56;16116535;19;129531;-63
2023/09/05 04:08:06;;;;;;;2.78;1.50;;;;;;;21.78;47.42;101791.56;16117664;19;129453;-63
2023/09/05 04:13:31;;;;;;;;;;;;;;;21.75;47.58;101793.97;16118770;19;129961;-62
2023/09/05 04:18:54;;;;;;;1.88;1.40;;;;;;;21.76;47.29;101787.31;16115435;19;129959;-63
2023/09/05 04:24:16;;;;;;;3.38;1.27;;;;;;;21.75;47.63;101780.91;16114939;19;129405;-62
2023/09/05 04:29:38;;;;;;;1.75;1.30;;;;;;;21.75;47.22;101783.69;16114739;19;131527;-63
2023/09/05 04:35:01;;;;;;;1.52;1.42;;;;;;;21.74;47.10;101787.56;16114611;19;131062;-61
2023/09/05 04:40:23;;;;;;;1.92;1.63;;;;;;;21.73;47.66;101788.66;16116124;19;130160;-61
2023/09/05 04:45:55;;;;;;;2.15;1.80;;;;;;;21.75;47.35;101792.03;16112955;19;129897;-62
2023/09/05 04:51:17;;;;;;;1.92;1.33;;;;;;;21.73;47.44;101790.59;16114832;19;130213;-61
2023/09/05 04:56:39;;;;;;;2.30;1.52;;;;;;;21.72;47.34;101786.97;16113434;19;130311;-61
2023/09/05 05:02:01;;;;;;;1.52;1.20;;;;;;;21.73;47.46;101794.22;16106356;19;130560;-62
2023/09/05 05:07:24;;;;;;;2.08;1.67;;;;;;;21.72;47.43;101791.69;16107404;19;130490;-62
2023/09/05 05:12:45;;;;;;;1.60;1.45;;;;;;;21.71;47.48;101801.97;16111243;19;130877;-65
2023/09/05 05:18:07;;;;;;;2.10;1.77;;;;;;;21.71;47.45;101804.75;16109542;19;131472;-51
2023/09/05 05:23:30;;;;;;;2.50;1.65;;;;;;;21.74;47.79;101807.06;16111240;19;130284;-63
2023/09/05 05:28:52;;;;;;;1.15;1.02;;;;;;;21.82;47.57;101803.88;16110319;19;130421;-62
2023/09/05 05:34:14;;;;;;;1.52;1.17;;;;;;;21.94;47.44;101815.00;16108157;19;131146;-62
2023/09/05 05:39:36;;;;;;;1.42;1.15;;;;;;;22.02;47.26;101819.34;16114378;19;130410;-62
2023/09/05 05:44:58;;;;;;;1.73;1.20;;;;;;;22.09;47.64;101810.84;16105303;19;130614;-62
2023/09/05 05:50:20;;;;;;;2.88;1.20;;;;;;;22.14;47.45;101813.69;16112851;19;129975;-62
2023/09/05 05:55:42;;;;;;;5.65;1.60;;;;;;;22.17;47.46;101807.63;16131480;19;130675;-62
2023/09/05 06:01:06;;;;;;;3.75;1.15;;;;;;;22.21;47.20;101816.38;16133472;19;129809;-61
2023/09/05 06:06:29;;;;;;;4.17;1.40;;;;;;;22.25;47.07;101823.16;16140240;19;129386;-61
2023/09/05 06:11:51;;;;;;;2.17;1.10;;;;;;;22.31;47.02;101821.31;16156442;19;129938;-60
2023/09/05 06:17:13;;;;;;;2.90;1.40;;;;;;;22.34;46.71;101815.25;16182050;19;130040;-62
2023/09/05 06:22:37;;;;;;;4.20;1.50;;;;;;;22.39;46.71;101815.31;16184673;19;128477;-60
2023/09/05 06:28:00;;;;;;;5.87;1.50;;;;;;;22.43;46.43;101800.63;16186682;19;128680;-59
2023/09/05 06:33:23;;;;;;;2.45;1.45;;;;;;;22.47;46.53;101795.38;16197850;19;132803;-61
2023/09/05 06:38:45;;;;;;;5.05;1.42;;;;;;;22.51;46.24;101795.75;16193215;19;128393;-60
2023/09/05 06:44:07;;;;;;;3.38;1.42;;;;;;;22.55;46.52;101802.47;16194594;19;133587;-60
2023/09/05 06:49:29;;;;;;;3.80;1.10;;;;;;;22.58;46.14;101791.69;16195138;19;129384;-61
2023/09/05 06:54:52;;;;;;;5.68;1.20;;;;;;;22.63;45.99;101799.31;16215968;19;129344;-60
2023/09/05 07:00:14;;;;;;;3.25;1.40;;;;;;;22.67;46.01;101794.88;16180689;19;129429;-61
2023/09/05 07:05:43;;;;;;;4.00;1.40;;;;;;;22.70;45.88;101791.59;16177583;19;129832;-61
2023/09/05 07:11:20;;;;;;;3.33;1.42;;;;;;;22.72;45.93;101789.41;16171191;19;129220;-61
2023/09/05 07:16:42;;;;;;;2.75;1.20;;;;;;;22.76;45.85;101794.50;16155028;19;132091;-61
2023/09/05 07:22:04;;;;;;;1.95;1.13;;;;;;;22.79;45.98;101785.59;16171180;19;129670;-60
2023/09/05 07:27:27;;;;;;;5.47;1.30;;;;;;;22.81;45.95;101786.19;16172591;19;129238;-65
2023/09/05 07:32:49;;;;;;;6.93;1.40;;;;;;;22.84;45.80;101785.69;16149415;19;129346;-60
2023/09/05 07:38:17;;;;;;;3.20;1.30;;;;;;;22.87;45.88;101777.66;16120087;19;129499;-61
2023/09/05 07:43:39;;;;;;;5.18;1.58;;;;;;;22.91;45.83;101779.97;16133096;19;129476;-61
2023/09/05 07:49:03;;;;;;;2.80;1.10;;;;;;;22.94;45.96;101771.09;16127142;19;130427;-60
2023/09/05 07:54:26;;;;;;;3.20;1.23;;;;;;;22.98;45.53;101769.47;16142234;19;130348;-61
2023/09/05 07:59:48;;;;;;;2.03;1.15;;;;;;;23.00;45.91;101762.53;16139300;19;130812;-60
2023/09/05 08:05:10;;;;;;;3.75;1.05;;;;;;;23.03;45.90;101772.34;16133227;19;129202;-61
2023/09/05 08:10:33;;;;;;;1.63;1.10;;;;;;;23.05;45.92;101764.56;16138506;19;129010;-60
2023/09/05 08:15:56;;;;;;;1.88;1.20;;;;;;;23.07;46.07;101761.50;16133252;19;129688;-61
2023/09/05 08:21:18;;;;;;;3.58;1.35;;;;;;;23.09;45.60;101762.09;16134110;19;130972;-66
2023/09/05 08:26:40;;;;;;;1.95;1.30;;;;;;;23.09;46.11;101760.13;16123828;19;129784;-61
2023/09/05 08:32:03;;;;;;;2.83;1.20;;;;;;;23.12;45.91;101758.81;16126942;19;132150;-62
2023/09/05 08:37:25;;;;;;;1.95;1.10;;;;;;;23.13;46.19;101752.13;16126231;19;129416;-61
2023/09/05 08:42:50;;;;;;;3.55;1.40;;;;;;;23.14;45.95;101768.59;16131307;19;133999;-61
2023/09/05 08:48:12;;;;;;;3.70;1.25;;;;;;;23.15;46.36;101766.63;16122078;19;129490;-61
2023/09/05 08:53:41;;;;;;;2.47;1.02;;;;;;;23.15;46.25;101770.28;16120530;19;129915;-61
2023/09/05 08:59:04;;;;;;;1.83;1.00;;;;;;;23.15;46.45;101759.13;16122684;19;129579;-61
2023/09/05 09:04:26;;;;;;;2.30;1.08;;;;;;;23.15;46.45;101769.44;16129169;19;129849;-61
2023/09/05 09:09:49;;;;;;;2.45;1.30;;;;;;;23.14;46.56;101774.19;16128597;19;130055;-61
2023/09/05 09:15:13;;;;;;;3.40;1.20;;;;;;;23.15;46.62;101797.34;16125662;19;131299;-61
2023/09/05 09:20:42;;;;;;;3.47;1.17;;;;;;;23.14;46.70;101778.94;16127227;19;129145;-61
2023/09/05 09:26:05;;;;;;;2.53;1.27;;;;;;;23.13;46.66;101782.81;16129516;19;130479;-61
2023/09/05 09:31:29;;;;;;;3.63;1.10;;;;;;;23.12;46.75;101776.38;16125637;19;131467;-61
2023/09/05 09:36:52;;;;;;;1.30;1.00;;;;;;;23.11;47.08;101782.22;16117169;19;130362;-61
2023/09/05 09:42:23;;;;;;;3.67;1.55;;;;;;;23.11;46.81;101791.44;16118101;19;129771;-61
2023/09/05 09:47:51;;;;;;;2.67;1.40;;;;;;;23.10;46.89;101794.50;16123207;19;129902;-61
2023/09/05 09:53:19;;;;;;;7.72;1.63;;;;;;;23.09;47.23;101782.47;16116353;19;129872;-60
2023/09/05 09:58:44;;;;;;;3.75;1.65;;;;;;;23.11;47.13;101773.84;16121074;19;129325;-60
2023/09/05 10:04:06;;;;;;;6.45;2.10;;;;;;;23.15;47.54;101772.22;16117982;19;129640;-58
2023/09/05 10:09:30;;;;;;;7.80;2.47;;;;;;;23.19;46.76;101765.03;16117347;19;130080;-58
2023/09/05 10:14:55;;;;;;;4.82;1.65;;;;;;;23.24;46.52;101762.31;16115397;19;129555;-61
2023/09/05 10:20:21;;;;;;;6.05;2.28;;;;;;;23.25;46.08;101752.84;16114840;19;130835;-60
2023/09/05 10:25:48;;;;;;;4.40;2.17;;;;;;;23.26;45.88;101757.34;16124088;19;129437;-58
2023/09/05 10:31:12;;;;;;;8.45;2.20;;;;;;;23.28;45.71;101752.31;16130113;19;130403;-58
2023/09/05 10:36:42;;;;;;;5.18;2.13;;;;;;;23.31;45.70;101750.97;16130559;19;129594;-57
2023/09/05 10:42:04;;;;;;;4.72;2.55;;;;;;;23.32;46.05;101756.28;16131355;19;129465;-59
2023/09/05 10:47:35;;;;;;;3.40;2.30;;;;;;;23.36;45.65;101767.78;16124142;19;129399;-59
2023/09/05 10:53:06;;;;;;;7.28;2.10;;;;;;;23.37;45.55;101737.91;16123961;19;130302;-60
2023/09/05 10:58:45;;;;;;;3.40;2.03;;;;;;;23.38;45.18;101740.44;16125422;19;129556;-61
2023/09/05 11:04:17;;;;;;;6.15;2.30;;;;;;;23.34;45.31;101733.69;16124997;19;131633;-60
2023/09/05 11:09:46;;;;;;;6.38;2.10;;;;;;;23.30;45.41;101735.31;16127430;19;129652;-61
2023/09/05 11:15:08;;;;;;;4.63;1.98;;;;;;;23.24;45.53;101742.78;16129196;19;130147;-58
2023/09/05 11:20:42;;;;;;;6.80;2.33;;;;;;;23.20;45.72;101734.06;16128223;19;130076;-59
2023/09/05 11:26:10;;;;;;;4.15;1.90;;;;;;;23.18;45.67;101727.03;16126269;19;129411;-61
2023/09/05 11:31:33;;;;;;;6.22;2.15;;;;;;;23.20;45.42;101727.63;16123235;19;130861;-57
2023/09/05 11:36:56;;;;;;;6.97;1.90;;;;;;;23.26;45.40;101707.09;16126434;19;131672;-57
2023/09/05 11:42:20;;;;;;;4.07;1.73;;;;;;;23.33;45.05;101707.72;16126043;19;129493;-60
2023/09/05 11:47:44;;;;;;;3.27;1.80;;;;;;;23.34;45.23;101705.75;16126797;19;129316;-60
2023/09/05 11:53:10;;;;;;;4.07;2.10;;;;;;;23.31;45.11;101706.28;16124796;19;130994;-61
2023/09/05 11:58:32;;;;;;;2.38;1.88;;;;;;;23.30;45.14;101699.03;16125716;19;130940;-60
2023/09/05 12:04:03;;;;;;;3.83;1.90;;;;;;;23.38;44.57;101711.69;16124348;19;131427;-57
2023/09/05 12:09:25;;;;;;;6.97;2.03;;;;;;;23.44;44.55;101686.38;16126578;19;130354;-59
2023/09/05 12:14:56;;;;;;;6.45;1.83;;;;;;;23.50;44.13;101687.25;16126412;19;130335;-61
2023/09/05 12:20:18;;;;;;;3.85;1.95;;;;;;;23.54;44.00;101688.41;16122951;19;129604;-61
2023/09/05 12:25:46;;;;;;;4.97;1.90;;;;;;;23.60;43.72;101680.97;16118556;19;130557;-61
2023/09/05 12:31:20;;;;;;;5.57;2.10;;;;;;;23.61;44.11;101671.47;16121600;19;130914;-61
2023/09/05 12:36:42;;;;;;;;;;;;;;;23.61;44.16;101672.34;16122706;19;129704;-61
2023/09/05 12:42:04;;;;;;;4.80;1.80;;;;;;;23.65;44.61;101665.09;16121286;19;129724;-61
2023/09/05 12:47:26;;;;;;;4.50;1.67;;;;;;;23.66;44.33;101672.38;16114609;19;131857;-62
2023/09/05 12:52:51;;;;;;;;;;;;;;;23.66;44.52;101658.41;16119363;19;129706;-61
2023/09/05 12:58:13;;;;;;;7.57;2.30;;;;;;;23.72;44.33;101667.69;16121132;19;130792;-61
2023/09/05 13:03:36;;;;;;;31.38;3.65;;;;;;;23.69;44.48;101661.78;16117919;19;129581;-60
2023/09/05 13:09:00;;;;;;;6.13;1.88;;;;;;;23.63;45.28;101660.88;16124150;19;130230;-61
2023/09/05 13:14:22;;;;;;;7.18;1.80;;;;;;;23.56;45.32;101657.44;16118467;19;129562;-61
2023/09/05 13:19:44;;;;;;;10.10;2.28;;;;;;;23.51;45.52;101666.59;16120598;19;129673;-61
2023/09/05 13:25:06;;;;;;;8.40;2.08;;;;;;;23.48;45.40;101670.75;16115464;19;130540;-60
2023/09/05 13:30:28;;;;;;;8.13;2.10;;;;;;;23.46;45.79;101658.16;16117338;19;129635;-62
2023/09/05 13:35:50;;;;;;;7.68;2.00;;;;;;;23.42;45.98;101654.19;16116029;19;129539;-62
2023/09/05 13:41:12;;;;;;;10.45;2.30;;;;;;;23.42;46.15;101654.19;16116436;19;131348;-63
2023/09/05 13:46:36;;;;;;;10.45;1.85;;;;;;;23.40;46.10;101642.44;16114791;19;130873;-62
2023/09/05 13:51:58;;;;;;;4.10;1.75;;;;;;;23.39;46.21;101637.97;16114949;19;129499;-62
2023/09/05 13:57:22;;;;;;;9.43;2.00;;;;;;;23.37;46.07;101634.59;16114834;19;131515;-62
2023/09/05 14:02:45;;;;;;;;;;;;;;;23.35;46.52;101623.69;16109999;19;130544;-60
2023/09/05 14:08:07;;;;;;;4.57;2.15;;;;;;;23.47;46.43;101620.75;16110425;19;130710;-62
2023/09/05 14:13:32;;;;;;;4.88;2.20;;;;;;;23.53;46.46;101619.69;16106687;19;130304;-60
2023/09/05 14:18:54;;;;;;;10.05;2.08;;;;;;;23.51;46.47;101621.91;16107301;19;130244;-60
2023/09/05 14:24:16;;;;;;;4.80;1.70;;;;;;;23.50;46.66;101620.25;16107659;19;130777;-58
2023/09/05 14:29:38;;;;;;;7.25;2.20;;;;;;;23.45;46.68;101607.03;16108787;19;130859;-65
2023/09/05 14:35:00;;;;;;;4.22;1.83;;;;;;;23.45;46.64;101611.78;16111032;19;129589;-66
2023/09/05 14:40:23;;;;;;;6.45;2.05;;;;;;;23.53;46.33;101605.72;16110389;19;129709;-58
2023/09/05 14:45:45;;;;;;;3.78;2.20;;;;;;;23.65;46.41;101600.03;16108251;19;130067;-60
2023/09/05 14:51:08;;;;;;;3.47;1.90;;;;;;;23.73;46.20;101601.50;16111904;19;131501;-61
2023/09/05 14:56:31;;;;;;;3.75;1.63;;;;;;;23.75;45.94;101594.53;16106654;19;130452;-59
2023/09/05 15:01:54;;;;;;;6.45;1.73;;;;;;;23.78;46.13;101591.22;16103748;19;129416;-59
2023/09/05 15:07:16;;;;;;;5.47;1.90;;;;;;;23.82;45.88;101597.94;16105808;19;129686;-59
2023/09/05 15:12:38;;;;;;;4.28;1.70;;;;;;;23.86;45.73;101581.50;16108844;19;129665;-59
2023/09/05 15:18:00;;;;;;;3.42;1.65;;;;;;;23.89;46.04;101578.16;16121581;19;131277;-59
2023/09/05 15:23:22;;;;;;;5.43;1.77;;;;;;;23.91;45.98;101575.94;16121184;19;129362;-58
2023/09/05 15:28:44;;;;;;;6.20;2.20;;;;;;;23.93;46.05;101558.91;16122695;19;130095;-59
2023/09/05 15:34:08;;;;;;;7.68;2.00;;;;;;;23.95;46.20;101562.25;16117924;19;130032;-59
2023/09/05 15:39:31;;;;;;;8.95;1.90;;;;;;;23.96;45.80;101548.03;16120915;19;132494;-59
2023/09/05 15:44:55;;;;;;;7.90;2.20;;;;;;;23.99;46.05;101548.63;16125022;19;129316;-59
2023/09/05 15:50:17;;;;;;;12.15;2.33;;;;;;;23.99;46.44;101551.41;16122117;19;129532;-60
2023/09/05 15:55:40;;;;;;;8.80;2.45;;;;;;;24.00;46.96;101550.31;16120566;19;130657;-57
2023/09/05 16:01:02;;;;;;;9.88;2.78;;;;;;;24.00;47.87;101555.91;16121304;19;129907;-58
2023/09/05 16:06:26;;;;;;;11.07;3.38;;;;;;;24.01;48.43;101564.00;16117207;19;130871;-58
2023/09/05 16:11:48;;;;;;;13.00;3.70;;;;;;;24.00;49.08;101561.50;16121698;19;133243;-59
2023/09/05 16:17:10;;;;;;;9.95;3.13;;;;;;;24.00;49.19;101567.91;16119800;19;129746;-59
2023/09/05 16:22:32;;;;;;;8.13;2.85;;;;;;;24.00;49.32;101567.09;16118932;19;129680;-60
2023/09/05 16:27:54;;;;;;;9.52;3.05;;;;;;;23.97;49.40;101569.28;16116752;19;130570;-61
2023/09/05 16:33:16;;;;;;;6.90;2.90;;;;;;;23.99;49.56;101576.56;16117682;19;129998;-58
2023/09/05 16:38:38;;;;;;;7.07;2.78;;;;;;;23.99;49.35;101573.78;16113202;19;130132;-60
2023/09/05 16:44:01;;;;;;;7.40;2.85;;;;;;;24.01;49.72;101582.72;16114422;19;130178;-59
2023/09/05 16:49:23;;;;;;;5.45;2.72;;;;;;;24.02;49.37;101581.59;16115722;19;134367;-59
2023/09/05 16:54:45;;;;;;;5.32;2.25;;;;;;;24.03;49.85;101583.28;16121493;19;130435;-58
2023/09/05 17:00:08;;;;;;;5.82;2.47;;;;;;;24.04;49.89;101588.63;16123249;19;131045;-60
2023/09/05 17:05:31;;;;;;;3.67;2.35;;;;;;;24.05;49.68;101597.84;16119458;19;129611;-60
2023/09/05 17:10:56;;;;;;;5.22;2.20;;;;;;;24.06;49.57;101593.94;16116471;19;131174;-60
2023/09/05 17:16:18;;;;;;;12.43;2.63;;;;;;;24.05;49.65;101595.91;16118676;19;130395;-60
2023/09/05 17:21:41;;;;;;;8.02;2.60;;;;;;;24.07;49.46;101601.22;16116911;19;130096;-62
2023/09/05 17:27:03;;;;;;;6.65;2.33;;;;;;;24.07;49.47;101598.44;16119619;19;134952;-59
2023/09/05 17:32:25;;;;;;;4.25;2.35;;;;;;;24.06;49.23;101588.34;16118225;19;132135;-60
2023/09/05 17:37:47;;;;;;;6.35;2.03;;;;;;;24.07;49.34;101590.03;16116333;19;129741;-66
2023/09/05 17:43:09;;;;;;;8.90;2.33;;;;;;;24.06;49.20;101591.16;16116785;19;129677;-61
2023/09/05 17:48:31;;;;;;;9.32;2.72;;;;;;;24.06;48.95;101589.19;16110940;19;130850;-61
2023/09/05 17:53:53;;;;;;;7.70;1.85;;;;;;;24.05;49.43;101592.25;16109832;19;131758;-61
2023/09/05 17:59:16;;;;;;;4.97;2.08;;;;;;;24.01;49.19;101591.09;16106238;19;130803;-62
2023/09/05 18:04:38;;;;;;;7.47;2.63;;;;;;;23.95;48.83;101601.38;16097395;19;130505;-61
2023/09/05 18:10:00;;;;;;;6.55;2.33;;;;;;;23.92;49.03;101597.19;16108536;19;129639;-61
2023/09/05 18:15:22;;;;;;;10.73;3.10;;;;;;;23.89;49.18;101606.09;16110124;19;131010;-61
2023/09/05 18:20:44;;;;;;;8.10;2.28;;;;;;;23.85;49.56;101610.56;16113385;19;130282;-62
2023/09/05 18:26:11;;;;;;;9.95;2.22;;;;;;;23.84;49.25;101617.25;16108905;19;130756;-61
2023/09/05 18:31:34;;;;;;;9.00;2.65;;;;;;;23.80;49.37;101613.28;16105897;19;130039;-63
2023/09/05 18:36:56;;;;;;;14.05;2.70;;;;;;;23.78;49.60;101616.34;16105137;19;129516;-62
2023/09/05 18:42:18;;;;;;;10.07;2.60;;;;;;;23.76;49.28;101618.56;16105138;19;129078;-60
2023/09/05 18:47:41;;;;;;;8.48;2.42;;;;;;;23.75;49.56;101622.47;16120597;19;131077;-62
2023/09/05 18:53:03;;;;;;;5.13;2.65;;;;;;;23.72;49.52;101627.75;16122525;19;132777;-62
2023/09/05 18:58:25;;;;;;;4.97;2.20;;;;;;;23.68;49.21;101635.81;16127690;19;129874;-62
2023/09/05 19:03:48;;;;;;;4.70;2.30;;;;;;;23.66;49.61;101633.28;16125143;19;133980;-62
2023/09/05 19:09:12;;;;;;;8.00;2.50;;;;;;;23.65;49.47;101642.75;16124011;19;130020;-62
2023/09/05 19:14:34;;;;;;;7.97;2.03;;;;;;;23.63;49.48;101644.97;16111738;19;129706;-61
2023/09/05 19:19:57;;;;;;;4.05;1.92;;;;;;;23.62;49.78;101651.69;16120117;19;129637;-62
2023/09/05 19:25:18;;;;;;;7.63;2.10;;;;;;;23.60;49.60;101653.88;16112301;19;129786;-63
2023/09/05 19:30:40;;;;;;;16.58;2.63;;;;;;;23.57;49.78;101659.97;16120196;19;130468;-66
2023/09/05 19:36:03;;;;;;;15.55;2.90;;;;;;;23.59;49.79;101666.16;16130555;19;130994;-62
2023/09/05 19:41:24;;;;;;;11.80;2.03;;;;;;;23.61;49.77;101666.75;16123754;19;132996;-63
2023/09/05 19:46:46;;;;;;;7.88;2.40;;;;;;;23.64;49.84;101666.22;16189815;19;129150;-64
2023/09/05 19:52:09;;;;;;;6.10;2.17;;;;;;;23.65;49.89;101662.31;16203339;19;133041;-63
2023/09/05 19:57:33;;;;;;;8.40;1.98;;;;;;;23.66;49.67;101666.78;16200906;19;129961;-68
2023/09/05 20:02:55;;;;;;;5.95;2.10;;;;;;;23.68;49.78;101674.06;16201384;19;128539;-67
2023/09/05 20:08:17;;;;;;;11.88;2.63;;;;;;;23.71;49.84;101673.53;16200004;19;130387;-62
2023/09/05 20:13:39;;;;;;;12.27;2.22;;;;;;;23.71;49.77;101671.59;16204383;19;130706;-66
2023/09/05 20:19:11;;;;;;;6.35;2.00;;;;;;;23.73;49.64;101680.56;16201373;19;129125;-64
2023/09/05 20:24:33;;;;;;;7.20;2.00;;;;;;;23.72;50.07;101680.81;16199894;19;130705;-67
2023/09/05 20:29:55;;;;;;;3.15;1.73;;;;;;;23.72;49.94;101683.63;16204464;19;129724;-65
2023/09/05 20:35:17;;;;;;;6.53;1.77;;;;;;;23.70;49.98;101680.25;16196352;19;129531;-64
2023/09/05 20:40:40;;;;;;;8.25;1.75;;;;;;;23.69;50.00;101684.13;16193182;19;128946;-64
2023/09/05 20:46:02;;;;;;;10.10;1.80;;;;;;;23.68;50.06;101682.44;16128584;19;130864;-65
2023/09/05 20:51:24;;;;;;;12.35;2.17;;;;;;;23.64;49.61;101682.97;16118667;19;129626;-64
2023/09/05 20:56:46;;;;;;;8.10;1.85;;;;;;;23.61;49.73;101677.94;16118410;19;130290;-65
2023/09/05 21:02:08;;;;;;;11.07;1.70;;;;;;;23.58;49.47;101684.03;16123754;19;133999;-65
2023/09/05 21:07:30;;;;;;;9.90;1.60;;;;;;;23.55;49.86;101680.88;16119608;19;130981;-65
2023/09/05 21:12:56;;;;;;;4.55;1.75;;;;;;;23.52;50.04;101693.41;16111444;19;130858;-64
2023/09/05 21:18:18;;;;;;;8.35;2.20;;;;;;;23.49;49.71;101696.75;16118442;19;131891;-64
2023/09/05 21:23:40;;;;;;;5.55;1.80;;;;;;;23.48;49.76;101692.25;16114033;19;131957;-64
2023/09/05 21:29:02;;;;;;;3.40;1.73;;;;;;;23.47;49.80;101688.59;16116212;19;131466;-64
2023/09/05 21:34:25;;;;;;;4.88;1.67;;;;;;;23.48;49.94;101687.50;16112640;19;130685;-64
2023/09/05 21:39:47;;;;;;;4.85;1.48;;;;;;;23.48;49.88;101692.25;16117428;19;129811;-59
2023/09/05 21:45:09;;;;;;;5.22;1.63;;;;;;;23.48;49.72;101686.69;16112734;19;130542;-67
2023/09/05 21:50:31;;;;;;;3.30;1.33;;;;;;;23.49;49.90;101696.75;16119580;19;129086;-64
2023/09/05 21:55:53;;;;;;;5.80;1.63;;;;;;;23.49;49.84;101699.53;16119503;19;130455;-65
2023/09/05 22:01:15;;;;;;;2.60;1.30;;;;;;;23.49;49.80;101691.16;16120567;19;130486;-65
2023/09/05 22:06:37;;;;;;;4.45;1.30;;;;;;;23.49;49.74;101699.53;16125446;19;129820;-65
2023/09/05 22:12:04;;;;;;;6.15;1.70;;;;;;;23.49;49.79;101702.34;16116423;19;129692;-65
2023/09/05 22:17:26;;;;;;;7.78;1.60;;;;;;;23.48;49.83;101706.22;16121841;19;130084;-65
2023/09/05 22:22:49;;;;;;;5.65;1.60;;;;;;;23.46;49.77;101708.44;16116747;19;134182;-66
2023/09/05 22:28:11;;;;;;;7.45;1.25;;;;;;;23.43;49.66;101711.72;16110075;19;129660;-65
2023/09/05 22:33:34;;;;;;;5.07;1.45;;;;;;;23.41;49.44;101716.72;16111572;19;130341;-66
2023/09/05 22:38:56;;;;;;;2.22;1.35;;;;;;;23.40;49.26;101723.41;16109762;19;130049;-66
2023/09/05 22:44:18;;;;;;;3.03;1.27;;;;;;;23.38;49.75;101725.66;16108464;19;129484;-67
2023/09/05 22:49:40;;;;;;;2.33;1.45;;;;;;;23.37;49.54;101726.75;16107691;19;129678;-66
2023/09/05 22:55:02;;;;;;;2.40;1.25;;;;;;;23.34;49.50;101728.94;16110653;19;129673;-66
2023/09/05 23:00:24;;;;;;;4.45;1.33;;;;;;;23.35;49.72;101730.66;16108232;19;134596;-67
2023/09/05 23:05:46;;;;;;;3.53;1.50;;;;;;;23.33;49.58;101732.84;16107020;19;130109;-67
2023/09/05 23:11:08;;;;;;;1.20;1.10;;;;;;;23.31;49.51;101729.47;16106397;19;133436;-65
2023/09/05 23:16:34;;;;;;;3.80;1.40;;;;;;;23.30;49.52;101733.34;16098980;19;130388;-65
2023/09/05 23:21:59;;;;;;;2.80;1.27;;;;;;;23.29;49.73;101736.41;16101626;19;130747;-65
2023/09/05 23:27:21;;;;;;;2.28;1.30;;;;;;;23.29;49.32;101742.84;16100783;19;131046;-67
2023/09/05 23:32:45;;;;;;;3.58;1.50;;;;;;;23.27;49.51;101745.03;16106485;19;132463;-64
2023/09/05 23:38:10;;;;;;;1.83;1.10;;;;;;;23.26;49.51;101743.38;16121121;19;129579;-66
2023/09/05 23:43:32;;;;;;;2.75;1.05;;;;;;;23.25;49.46;101746.41;16122501;19;130803;-66
2023/09/05 23:48:55;;;;;;;2.88;1.30;;;;;;;23.24;49.45;101753.94;16121448;19;130081;-66
2023/09/05 23:54:17;;;;;;;3.15;1.45;;;;;;;23.24;49.48;101753.09;16122751;19;130234;-65
2023/09/05 23:59:40;;;;;;;2.55;1.08;;;;;;;23.21;49.55;101762.84;16126444;19;130073;-65
